createdAt,value
2023-03-02T00:02:23.275Z,19.67
2023-03-02T00:04:54.261Z,22.53
2023-03-02T00:07:25.303Z,17.23
2023-03-02T00:09:54.502Z,20.37
2023-03-02T00:12:24.659Z,18.70
2023-03-02T00:14:56.591Z,16.80
2023-03-02T00:17:28.642Z,21.07
2023-03-02T00:20:07.470Z,24.17
2023-03-02T00:22:36.254Z,22.10
2023-03-02T00:25:05.641Z,21.00
2023-03-02T00:27:36.811Z,20.07
2023-03-02T00:30:10.062Z,24.40
2023-03-02T00:32:38.722Z,17.33
2023-03-02T00:35:08.188Z,22.20
2023-03-02T00:37:37.309Z,21.07
2023-03-02T00:40:08.025Z,26.43
2023-03-02T00:42:38.515Z,18.93
2023-03-02T00:45:11.118Z,17.03
2023-03-02T00:47:41.473Z,18.77
2023-03-02T00:50:11.800Z,24.00
2023-03-02T00:52:45.673Z,25.13
2023-03-02T00:55:14.257Z,18.07
2023-03-02T00:57:44.401Z,21.83
2023-03-02T01:00:13.646Z,28.37
2023-03-02T01:02:44.545Z,19.63
2023-03-02T01:05:13.326Z,17.93
2023-03-02T01:07:41.992Z,19.10
2023-03-02T01:10:14.329Z,20.63
2023-03-02T01:12:44.703Z,25.53
2023-03-02T01:15:16.384Z,21.60
2023-03-02T01:17:48.000Z,19.87
2023-03-02T01:20:17.176Z,25.80
2023-03-02T01:22:46.054Z,18.67
2023-03-02T01:25:17.048Z,19.37
2023-03-02T01:27:47.852Z,21.53
2023-03-02T01:30:17.211Z,20.50
2023-03-02T01:32:45.761Z,19.00
2023-03-02T01:35:15.211Z,20.43
2023-03-02T01:37:44.425Z,17.87
2023-03-02T01:40:15.004Z,19.23
2023-03-02T01:42:53.782Z,21.27
2023-03-02T01:45:57.772Z,20.97
2023-03-02T01:48:30.308Z,16.67
2023-03-02T01:50:59.572Z,22.67
2023-03-02T01:53:30.057Z,21.33
2023-03-02T01:55:59.865Z,15.77
2023-03-02T01:58:30.644Z,17.63
2023-03-02T02:01:00.301Z,16.77
2023-03-02T02:03:30.993Z,24.10
2023-03-02T02:06:10.144Z,16.20
2023-03-02T02:08:42.430Z,17.97
2023-03-02T02:11:13.866Z,17.10
2023-03-02T02:13:44.468Z,18.30
2023-03-02T02:16:13.270Z,17.70
2023-03-02T02:18:43.073Z,16.43
2023-03-02T02:21:12.094Z,16.30
2023-03-02T02:23:43.575Z,12.80
2023-03-02T02:26:18.767Z,18.50
2023-03-02T02:28:57.980Z,20.20
2023-03-02T02:31:32.478Z,19.20
2023-03-02T02:34:06.081Z,21.47
2023-03-02T02:36:37.317Z,20.17
2023-03-02T02:39:07.538Z,15.80
2023-03-02T02:41:40.073Z,18.33
2023-03-02T02:44:11.088Z,14.30
2023-03-02T02:46:40.636Z,16.57
2023-03-02T02:49:23.286Z,16.23
2023-03-02T02:51:51.698Z,14.27
2023-03-02T02:54:20.631Z,20.47
2023-03-02T02:56:52.121Z,13.00
2023-03-02T02:59:23.162Z,17.30
2023-03-02T03:01:52.687Z,19.20
2023-03-02T03:04:23.571Z,15.20
2023-03-02T03:06:54.651Z,12.90
2023-03-02T03:09:25.886Z,15.43
2023-03-02T03:11:57.577Z,17.57
2023-03-02T03:14:28.876Z,15.00
2023-03-02T03:16:57.934Z,17.57
2023-03-02T03:19:28.899Z,15.47
2023-03-02T03:22:00.929Z,12.67
2023-03-02T03:24:31.405Z,12.03
2023-03-02T03:27:02.303Z,17.40
2023-03-02T03:29:31.890Z,20.10
2023-03-02T03:32:04.082Z,23.63
2023-03-02T03:34:33.312Z,16.83
2023-03-02T03:37:03.071Z,15.90
2023-03-02T03:39:32.434Z,18.30
2023-03-02T03:42:02.897Z,18.60
2023-03-02T03:44:31.629Z,19.53
2023-03-02T03:47:00.380Z,14.33
2023-03-02T03:49:29.381Z,14.20
2023-03-02T03:51:57.919Z,19.10
2023-03-02T03:54:27.160Z,16.03
2023-03-02T03:56:55.853Z,18.90
2023-03-02T03:59:27.072Z,17.63
2023-03-02T04:01:57.226Z,16.03
2023-03-02T04:04:28.312Z,13.77
2023-03-02T04:06:57.283Z,25.43
2023-03-02T04:09:27.497Z,17.60
2023-03-02T04:12:02.707Z,19.97
2023-03-02T04:14:32.656Z,17.20
2023-03-02T04:17:01.434Z,32.23
2023-03-02T04:19:30.055Z,34.57
2023-03-02T04:22:02.112Z,25.50
2023-03-02T04:25:01.005Z,17.90
2023-03-02T04:27:29.752Z,12.90
2023-03-02T04:30:00.674Z,15.53
2023-03-02T04:32:29.585Z,17.73
2023-03-02T04:35:02.381Z,14.33
2023-03-02T04:37:30.983Z,17.33
2023-03-02T04:40:01.131Z,16.97
2023-03-02T04:42:30.692Z,16.20
2023-03-02T04:45:00.770Z,16.07
2023-03-02T04:47:30.922Z,17.53
2023-03-02T04:49:59.397Z,11.63
2023-03-02T04:52:27.889Z,15.03
2023-03-02T04:54:56.321Z,9.57
2023-03-02T04:57:27.233Z,13.13
2023-03-02T04:59:55.692Z,13.40
2023-03-02T05:02:26.310Z,21.57
2023-03-02T05:04:54.894Z,19.13
2023-03-02T05:07:24.341Z,20.03
2023-03-02T05:09:55.737Z,22.33
2023-03-02T05:12:24.715Z,21.57
2023-03-02T05:14:53.564Z,23.47
2023-03-02T05:17:21.948Z,23.60
2023-03-02T05:19:54.290Z,25.00
2023-03-02T05:22:25.069Z,26.50
2023-03-02T05:24:53.546Z,24.40
2023-03-02T05:27:21.881Z,22.87
2023-03-02T05:29:50.302Z,21.03
2023-03-02T05:32:18.981Z,29.67
2023-03-02T05:34:47.433Z,20.53
2023-03-02T05:37:17.586Z,15.70
2023-03-02T05:39:46.469Z,21.03
2023-03-02T05:42:15.318Z,22.73
2023-03-02T05:44:46.422Z,23.03
2023-03-02T05:47:18.564Z,20.20
2023-03-02T05:49:47.095Z,17.87
2023-03-02T05:52:19.008Z,20.60
2023-03-02T05:54:47.516Z,20.23
2023-03-02T05:57:20.877Z,23.00
2023-03-02T05:59:51.107Z,21.80
2023-03-02T06:02:21.878Z,26.83
2023-03-02T06:04:52.779Z,32.00
2023-03-02T06:07:22.815Z,30.20
2023-03-02T06:09:51.984Z,25.40
2023-03-02T06:12:20.677Z,30.27
2023-03-02T06:14:52.287Z,26.00
2023-03-02T06:17:21.124Z,24.70
2023-03-02T06:19:51.501Z,24.00
2023-03-02T06:22:20.342Z,28.90
2023-03-02T06:24:50.352Z,31.93
2023-03-02T06:27:18.945Z,22.20
2023-03-02T06:29:47.643Z,28.70
2023-03-02T06:32:16.462Z,23.93
2023-03-02T06:34:52.411Z,33.90
2023-03-02T06:37:21.112Z,26.63
2023-03-02T06:39:51.035Z,21.87
2023-03-02T06:42:19.926Z,32.83
2023-03-02T06:44:48.639Z,31.80
2023-03-02T06:47:17.532Z,35.80
2023-03-02T06:49:45.912Z,28.60
2023-03-02T06:52:16.667Z,35.17
2023-03-02T06:54:45.525Z,34.50
2023-03-02T06:57:16.040Z,37.53
2023-03-02T06:59:46.742Z,35.83
2023-03-02T07:02:15.365Z,31.40
2023-03-02T07:04:43.579Z,31.53
2023-03-02T07:07:15.599Z,35.57
2023-03-02T07:09:44.274Z,32.57
2023-03-02T07:12:15.189Z,33.73
2023-03-02T07:14:47.611Z,48.47
2023-03-02T07:17:46.369Z,44.97
2023-03-02T07:20:17.200Z,28.43
2023-03-02T07:22:48.426Z,36.70
2023-03-02T07:25:17.057Z,30.60
2023-03-02T07:27:48.259Z,29.10
2023-03-02T07:30:21.447Z,46.67
2023-03-02T07:32:50.513Z,39.70
2023-03-02T07:35:19.770Z,43.17
2023-03-02T07:37:48.647Z,37.13
2023-03-02T07:40:20.178Z,33.03
2023-03-02T07:42:49.191Z,41.80
2023-03-02T07:45:25.352Z,33.17
2023-03-02T07:47:54.030Z,27.13
2023-03-02T07:50:22.744Z,38.23
2023-03-02T07:52:51.693Z,39.23
2023-03-02T07:55:20.459Z,36.27
2023-03-02T07:57:49.047Z,35.03
2023-03-02T08:00:18.971Z,28.20
2023-03-02T08:02:52.042Z,34.33
2023-03-02T08:05:20.869Z,31.87
2023-03-02T08:07:50.153Z,28.70
2023-03-02T08:10:19.152Z,32.73
2023-03-02T08:12:47.981Z,29.80
2023-03-02T08:15:16.528Z,28.07
2023-03-02T08:17:49.850Z,28.47
2023-03-02T08:20:21.704Z,29.60
2023-03-02T08:22:52.021Z,24.67
2023-03-02T08:25:20.600Z,25.80
2023-03-02T08:27:51.287Z,26.60
2023-03-02T08:30:20.248Z,26.50
2023-03-02T08:32:49.091Z,27.60
2023-03-02T08:35:22.475Z,25.30
2023-03-02T08:37:51.166Z,28.07
2023-03-02T08:40:20.046Z,25.60
2023-03-02T08:42:50.102Z,30.27
2023-03-02T08:45:21.121Z,25.70
2023-03-02T08:47:51.927Z,24.70
2023-03-02T08:50:21.799Z,24.27
2023-03-02T08:52:51.067Z,20.70
2023-03-02T08:55:20.365Z,21.43
2023-03-02T08:57:55.718Z,22.87
2023-03-02T09:00:24.399Z,21.63
2023-03-02T09:02:59.018Z,20.33
2023-03-02T09:05:29.139Z,24.60
2023-03-02T09:07:58.737Z,27.13
2023-03-02T09:10:27.208Z,24.20
2023-03-02T09:12:58.127Z,20.30
2023-03-02T09:15:32.661Z,20.60
2023-03-02T09:18:06.466Z,24.83
2023-03-02T09:20:37.608Z,22.30
2023-03-02T09:23:06.621Z,22.10
2023-03-02T09:25:35.321Z,16.23
2023-03-02T09:28:05.270Z,23.13
2023-03-02T09:30:38.097Z,18.63
2023-03-02T09:33:07.452Z,22.40
2023-03-02T09:35:40.003Z,21.13
2023-03-02T09:38:09.032Z,28.40
2023-03-02T09:40:39.420Z,26.93
2023-03-02T09:43:18.214Z,16.73
2023-03-02T09:46:22.480Z,21.20
2023-03-02T09:49:04.820Z,14.70
2023-03-02T09:51:39.615Z,13.13
2023-03-02T09:54:13.834Z,19.03
2023-03-02T09:56:45.862Z,19.40
2023-03-02T09:59:22.453Z,15.47
2023-03-02T10:01:54.822Z,13.47
2023-03-02T10:04:26.291Z,15.63
2023-03-02T10:07:00.974Z,16.37
2023-03-02T10:09:29.842Z,15.83
2023-03-02T10:12:14.782Z,12.50
2023-03-02T10:14:46.575Z,13.87
2023-03-02T10:17:31.036Z,16.07
2023-03-02T10:20:03.059Z,21.83
2023-03-02T10:22:35.883Z,21.00
2023-03-02T10:25:15.507Z,17.00
2023-03-02T10:27:48.030Z,15.77
2023-03-02T10:30:22.034Z,19.67
2023-03-02T10:32:52.530Z,15.87
2023-03-02T10:35:23.451Z,14.40
2023-03-02T10:38:01.171Z,27.40
2023-03-02T10:40:41.491Z,14.90
2023-03-02T10:43:16.858Z,18.50
2023-03-02T10:45:51.166Z,13.10
2023-03-02T10:48:23.291Z,17.60
2023-03-02T10:50:55.218Z,10.90
2023-03-02T10:53:25.369Z,11.00
2023-03-02T10:55:55.908Z,15.30
2023-03-02T10:58:31.601Z,14.33
2023-03-02T11:01:21.564Z,13.00
2023-03-02T11:04:00.144Z,13.87
2023-03-02T11:06:32.067Z,9.50
2023-03-02T11:09:06.040Z,13.80
2023-03-02T11:11:35.477Z,10.20
2023-03-02T11:14:14.001Z,13.43
2023-03-02T11:16:42.754Z,10.03
2023-03-02T11:19:15.505Z,11.27
2023-03-02T11:21:47.694Z,15.30
2023-03-02T11:24:20.506Z,17.23
2023-03-02T11:26:51.681Z,12.10
2023-03-02T11:29:30.195Z,14.97
2023-03-02T11:32:01.751Z,12.60
2023-03-02T11:34:34.185Z,13.47
2023-03-02T11:37:19.315Z,11.37
2023-03-02T11:40:18.185Z,11.73
2023-03-02T11:42:54.920Z,9.97
2023-03-02T11:45:27.484Z,11.43
2023-03-02T11:48:09.511Z,15.67
2023-03-02T11:50:52.119Z,11.17
2023-03-02T11:53:21.058Z,12.03
2023-03-02T11:55:51.569Z,13.43
2023-03-02T11:58:21.922Z,17.20
2023-03-02T12:00:51.477Z,13.13
2023-03-02T12:03:26.430Z,15.80
2023-03-02T12:06:05.253Z,21.37
2023-03-02T12:08:41.136Z,13.57
2023-03-02T12:11:34.192Z,15.33
2023-03-02T12:14:04.820Z,17.43
2023-03-02T12:16:39.191Z,16.33
2023-03-02T12:19:15.831Z,19.43
2023-03-02T12:21:50.500Z,17.40
2023-03-02T12:24:33.090Z,17.30
2023-03-02T12:27:26.082Z,17.90
2023-03-02T12:29:58.822Z,18.83
2023-03-02T12:32:30.745Z,19.93
2023-03-02T12:35:02.130Z,18.13
2023-03-02T12:37:37.344Z,14.87
2023-03-02T12:40:27.439Z,19.10
2023-03-02T12:43:21.334Z,14.87
2023-03-02T12:46:05.932Z,16.40
2023-03-02T12:48:45.602Z,12.20
2023-03-02T12:51:18.550Z,13.77
2023-03-02T12:53:52.254Z,15.73
2023-03-02T12:56:24.752Z,16.23
2023-03-02T12:58:55.768Z,19.10
2023-03-02T13:01:32.641Z,16.10
2023-03-02T13:04:01.929Z,15.80
2023-03-02T13:06:33.688Z,14.60
2023-03-02T13:09:05.225Z,15.43
2023-03-02T13:11:36.958Z,17.90
2023-03-02T13:14:24.607Z,22.03
2023-03-02T13:17:03.132Z,20.50
2023-03-02T13:19:32.472Z,17.33
2023-03-02T13:22:05.388Z,18.00
2023-03-02T13:24:48.688Z,19.80
2023-03-02T13:27:19.353Z,22.03
2023-03-02T13:29:49.928Z,26.53
2023-03-02T13:32:24.743Z,20.33
2023-03-02T13:34:54.989Z,22.33
2023-03-02T13:37:34.582Z,20.97
2023-03-02T13:40:04.863Z,17.77
2023-03-02T13:42:37.545Z,20.63
2023-03-02T13:45:35.320Z,23.00
2023-03-02T13:48:15.657Z,25.37
2023-03-02T13:50:52.732Z,21.90
2023-03-02T13:53:22.082Z,22.37
2023-03-02T13:55:50.731Z,21.40
2023-03-02T13:58:20.662Z,26.93
2023-03-02T14:00:51.246Z,20.50
2023-03-02T14:03:27.784Z,22.47
2023-03-02T14:05:59.692Z,17.43
2023-03-02T14:08:28.215Z,23.40
2023-03-02T14:10:58.659Z,24.93
2023-03-02T14:13:33.170Z,23.50
2023-03-02T14:16:03.493Z,19.13
2023-03-02T14:18:36.799Z,26.67
2023-03-02T14:21:06.577Z,22.60
2023-03-02T14:23:35.453Z,18.97
2023-03-02T14:26:04.786Z,26.50
2023-03-02T14:28:35.923Z,23.23
2023-03-02T14:31:06.133Z,21.40
2023-03-02T14:33:36.624Z,23.03
2023-03-02T14:36:08.840Z,23.37
2023-03-02T14:38:38.039Z,25.10
2023-03-02T14:41:07.430Z,26.77
2023-03-02T14:43:35.865Z,25.77
2023-03-02T14:46:07.419Z,19.17
2023-03-02T14:48:35.988Z,21.33
2023-03-02T14:51:05.244Z,18.17
2023-03-02T14:53:35.025Z,17.40
2023-03-02T14:56:03.922Z,43.00
2023-03-02T14:58:35.381Z,24.67
2023-03-02T15:01:05.855Z,17.70
2023-03-02T15:03:34.516Z,24.50
2023-03-02T15:06:03.231Z,19.87
2023-03-02T15:08:32.098Z,23.30
2023-03-02T15:11:00.717Z,29.80
2023-03-02T15:13:29.697Z,19.87
2023-03-02T15:15:58.665Z,19.63
2023-03-02T15:18:28.883Z,20.63
2023-03-02T15:21:03.074Z,20.27
2023-03-02T15:23:31.767Z,21.70
2023-03-02T15:26:01.034Z,20.60
2023-03-02T15:28:30.928Z,22.33
2023-03-02T15:31:00.781Z,22.50
2023-03-02T15:33:30.632Z,19.83
2023-03-02T15:36:00.305Z,32.50
2023-03-02T15:38:28.824Z,25.63
2023-03-02T15:40:59.589Z,18.70
2023-03-02T15:43:31.107Z,22.20
2023-03-02T15:46:00.955Z,19.83
2023-03-02T15:48:31.898Z,23.13
2023-03-02T15:51:01.072Z,20.07
2023-03-02T15:53:30.415Z,22.60
2023-03-02T15:55:58.841Z,36.83
2023-03-02T15:58:28.332Z,30.87
2023-03-02T16:00:57.591Z,49.57
2023-03-02T16:03:26.584Z,38.33
2023-03-02T16:05:59.701Z,49.00
2023-03-02T16:08:30.815Z,45.03
2023-03-02T16:10:59.787Z,46.43
2023-03-02T16:13:30.150Z,65.63
2023-03-02T16:16:05.718Z,35.30
2023-03-02T16:18:37.065Z,31.27
2023-03-02T16:21:07.500Z,22.33
2023-03-02T16:23:37.703Z,18.83
2023-03-02T16:26:09.818Z,26.00
2023-03-02T16:28:38.251Z,21.33
2023-03-02T16:31:08.053Z,25.77
2023-03-02T16:33:36.762Z,35.10
2023-03-02T16:36:07.630Z,35.70
2023-03-02T16:38:38.748Z,27.03
2023-03-02T16:41:16.896Z,34.83
2023-03-02T16:43:46.798Z,41.07
2023-03-02T16:46:15.950Z,59.47
2023-03-02T16:48:45.354Z,43.60
2023-03-02T16:51:23.259Z,47.80
2023-03-02T16:53:51.779Z,28.27
2023-03-02T16:56:20.726Z,24.90
2023-03-02T16:58:49.338Z,19.70
2023-03-02T17:01:20.771Z,15.27
2023-03-02T17:03:50.141Z,18.90
2023-03-02T17:06:22.773Z,15.77
2023-03-02T17:08:57.702Z,22.00
2023-03-02T17:11:26.252Z,35.20
2023-03-02T17:13:54.797Z,18.20
2023-03-02T17:16:25.154Z,18.00
2023-03-02T17:18:54.007Z,12.33
2023-03-02T17:21:24.714Z,18.63
2023-03-02T17:23:53.409Z,21.63
2023-03-02T17:26:25.360Z,22.67
2023-03-02T17:28:56.432Z,28.73
2023-03-02T17:31:30.862Z,16.53
2023-03-02T17:33:59.757Z,16.00
2023-03-02T17:36:33.648Z,15.13
2023-03-02T17:39:04.417Z,19.93
2023-03-02T17:41:51.202Z,14.77
2023-03-02T17:44:19.695Z,14.80
2023-03-02T17:46:47.879Z,14.20
2023-03-02T17:49:19.042Z,12.97
2023-03-02T17:51:49.221Z,12.80
2023-03-02T17:54:20.893Z,30.83
2023-03-02T17:56:49.360Z,19.37
2023-03-02T17:59:19.977Z,19.93
2023-03-02T18:01:51.380Z,20.67
2023-03-02T18:04:19.710Z,17.27
2023-03-02T18:06:49.659Z,19.20
2023-03-02T18:09:18.567Z,17.93
2023-03-02T18:11:47.727Z,18.10
2023-03-02T18:14:19.934Z,10.00
2023-03-02T18:16:51.417Z,14.83
2023-03-02T18:19:23.134Z,13.83
2023-03-02T18:21:53.253Z,16.17
2023-03-02T18:24:23.478Z,20.23
2023-03-02T18:26:54.557Z,25.20
2023-03-02T18:29:24.116Z,13.73
2023-03-02T18:31:53.524Z,20.13
2023-03-02T18:34:22.516Z,13.63
2023-03-02T18:36:52.535Z,23.20
2023-03-02T18:39:21.317Z,23.63
2023-03-02T18:41:49.956Z,15.27
2023-03-02T18:44:18.962Z,13.43
2023-03-02T18:46:47.746Z,17.00
2023-03-02T18:49:20.826Z,22.43
2023-03-02T18:51:49.383Z,15.07
2023-03-02T18:54:19.494Z,15.03
2023-03-02T18:56:48.489Z,16.83
2023-03-02T18:59:18.007Z,19.50
2023-03-02T19:01:47.623Z,16.30
2023-03-02T19:04:16.994Z,22.50
2023-03-02T19:06:46.176Z,20.93
2023-03-02T19:09:19.429Z,16.17
2023-03-02T19:11:48.199Z,19.70
2023-03-02T19:14:16.928Z,20.50
2023-03-02T19:16:48.316Z,19.83
2023-03-02T19:19:17.105Z,29.00
2023-03-02T19:21:45.787Z,25.57
2023-03-02T19:24:14.533Z,22.10
2023-03-02T19:26:44.758Z,13.53
2023-03-02T19:29:14.014Z,18.13
2023-03-02T19:31:42.899Z,18.90
2023-03-02T19:34:14.378Z,19.27
2023-03-02T19:36:44.122Z,33.63
2023-03-02T19:39:12.811Z,24.27
2023-03-02T19:41:41.652Z,19.07
2023-03-02T19:44:12.723Z,17.93
2023-03-02T19:46:41.588Z,19.70
2023-03-02T19:49:10.419Z,16.53
2023-03-02T19:51:41.116Z,21.67
2023-03-02T19:54:10.130Z,26.70
2023-03-02T19:56:40.428Z,18.77
2023-03-02T19:59:09.187Z,17.33
2023-03-02T20:01:39.726Z,22.40
2023-03-02T20:04:10.463Z,24.17
2023-03-02T20:06:39.938Z,30.80
2023-03-02T20:09:20.566Z,18.97
2023-03-02T20:11:49.620Z,21.83
2023-03-02T20:14:32.812Z,19.23
2023-03-02T20:17:04.361Z,16.23
2023-03-02T20:19:33.720Z,15.80
2023-03-02T20:22:04.058Z,16.10
2023-03-02T20:24:32.727Z,15.80
2023-03-02T20:27:01.366Z,17.10
2023-03-02T20:29:29.871Z,16.57
2023-03-02T20:31:58.839Z,18.80
2023-03-02T20:34:29.177Z,15.17
2023-03-02T20:37:02.977Z,19.37
2023-03-02T20:39:34.654Z,14.50
2023-03-02T20:42:07.217Z,23.83
2023-03-02T20:44:36.536Z,16.37
2023-03-02T20:47:08.460Z,13.20
2023-03-02T20:49:39.067Z,15.97
2023-03-02T20:52:14.151Z,18.90
2023-03-02T20:54:46.248Z,19.47
2023-03-02T20:57:16.749Z,13.70
2023-03-02T20:59:46.533Z,14.83
2023-03-02T21:02:18.722Z,14.57
2023-03-02T21:04:50.240Z,19.83
2023-03-02T21:07:19.224Z,15.73
2023-03-02T21:09:48.578Z,16.80
2023-03-02T21:12:20.202Z,12.20
2023-03-02T21:14:49.178Z,12.47
2023-03-02T21:17:21.461Z,14.63
2023-03-02T21:19:52.557Z,19.53
2023-03-02T21:22:22.322Z,12.07
2023-03-02T21:24:53.116Z,13.37
2023-03-02T21:27:21.952Z,9.47
2023-03-02T21:29:50.888Z,16.77
2023-03-02T21:32:22.858Z,13.83
2023-03-02T21:34:55.156Z,13.30
2023-03-02T21:37:24.288Z,12.23
2023-03-02T21:39:52.839Z,15.37
2023-03-02T21:42:22.239Z,12.37
2023-03-02T21:44:50.877Z,17.70
2023-03-02T21:47:22.265Z,16.63
2023-03-02T21:49:50.870Z,18.33
2023-03-02T21:52:27.471Z,17.57
2023-03-02T21:54:56.552Z,12.10
2023-03-02T21:57:25.483Z,11.07
2023-03-02T21:59:58.478Z,14.90
2023-03-02T22:02:27.681Z,14.93
2023-03-02T22:04:57.397Z,12.03
2023-03-02T22:07:35.800Z,11.30
2023-03-02T22:10:04.922Z,15.13
2023-03-02T22:12:36.626Z,11.00
2023-03-02T22:15:10.648Z,13.60
2023-03-02T22:17:41.479Z,13.70
2023-03-02T22:20:18.409Z,11.50
2023-03-02T22:22:52.561Z,19.33
2023-03-02T22:25:22.496Z,17.03
2023-03-02T22:27:50.919Z,14.23
2023-03-02T22:30:22.392Z,14.40
2023-03-02T22:32:53.407Z,12.40
2023-03-02T22:35:32.394Z,12.90
2023-03-02T22:38:09.321Z,14.10
2023-03-02T22:40:38.976Z,10.17
2023-03-02T22:43:13.860Z,16.33
2023-03-02T22:45:44.897Z,15.20
2023-03-02T22:48:23.323Z,9.70
2023-03-02T22:50:57.223Z,12.00
2023-03-02T22:53:32.408Z,13.20
2023-03-02T22:56:02.210Z,12.03
2023-03-02T22:58:52.821Z,11.00
2023-03-02T23:01:23.755Z,11.80
2023-03-02T23:03:53.957Z,9.03
2023-03-02T23:06:30.679Z,15.73
2023-03-02T23:09:02.516Z,9.90
2023-03-02T23:11:35.075Z,12.20
2023-03-02T23:14:04.818Z,12.53
2023-03-02T23:16:39.209Z,13.07
2023-03-02T23:19:10.520Z,12.90
2023-03-02T23:21:40.681Z,11.93
2023-03-02T23:24:10.989Z,13.73
2023-03-02T23:26:39.795Z,13.50
2023-03-02T23:29:08.844Z,10.90
2023-03-02T23:31:37.663Z,12.97
2023-03-02T23:34:08.823Z,10.90
2023-03-02T23:36:37.734Z,15.10
2023-03-02T23:39:06.627Z,12.53
2023-03-02T23:41:37.324Z,16.67
2023-03-02T23:44:07.657Z,15.10
2023-03-02T23:46:36.578Z,12.13
2023-03-02T23:49:05.290Z,16.63
2023-03-02T23:51:34.225Z,16.17
2023-03-02T23:54:04.665Z,15.77
2023-03-02T23:56:33.321Z,13.00
2023-03-02T23:59:04.633Z,118.47
